Terminal Aerodrome Forecast
Issued by NWS Tulsa, OK

Home | Current Version | Previous Version | Text Only | Print | Product List | Glossary On
Versions: 1 2 3 4 5 6 7 8 9 10 11 12
000
FTUS44 KTSA 012340
TAFTUL
TAF
KTUL 012340Z 0200/0224 20012G20KT P6SM SCT150 BKN250
     FM020200 19011G18KT P6SM BKN180
     FM020600 20012KT P6SM SCT060 BKN120
     FM021400 25008KT P6SM SCT250
     FM021900 34010KT P6SM VCTS SCT050CB BKN120 PROB30 0221/0224 4SM
      TSRA BKN035CB=

USA.gov is the U.S. government's official web portal to all federal, state and local government web resources and services.